Time;durP1;ratioP1;P1;durP2;ratioP2;P2;SDS_P1;SDS_P2;PMS_P1;PMS_P2;Temp;Humidity;BMP_temperature;BMP_pressure;BME280_temperature;BME280_humidity;BME280_pressure;Samples;Min_cycle;Max_cycle;Signal;HPM_P1;HPM_P2
2022/10/17 00:01:46;;;;;;;4.95;2.40;;;14.60;99.90;;;;;;5028261;28;20511;-73
2022/10/17 00:04:12;;;;;;;3.50;2.40;;;14.50;99.90;;;;;;5028789;28;20414;-73
2022/10/17 00:06:38;;;;;;;5.27;2.50;;;14.50;99.90;;;;;;5028875;28;20485;-73
2022/10/17 00:09:04;;;;;;;3.83;2.47;;;14.50;99.90;;;;;;5028287;28;20417;-73
2022/10/17 00:11:29;;;;;;;5.40;3.03;;;14.40;99.90;;;;;;5029792;28;20411;-74
2022/10/17 00:13:55;;;;;;;5.10;2.40;;;14.40;99.90;;;;;;5029617;28;20430;-73
2022/10/17 00:16:26;;;;;;;3.00;2.30;;;14.40;99.90;;;;;;5030243;28;20387;-73
2022/10/17 00:18:52;;;;;;;3.90;2.40;;;14.40;99.90;;;;;;5029906;28;20421;-73
2022/10/17 00:21:18;;;;;;;3.80;2.38;;;14.40;99.90;;;;;;5029034;28;20502;-73
2022/10/17 00:23:45;;;;;;;4.53;2.90;;;14.40;99.90;;;;;;5026710;28;20411;-73
2022/10/17 00:26:11;;;;;;;3.67;2.20;;;14.30;99.90;;;;;;5029885;28;20793;-73
2022/10/17 00:28:36;;;;;;;4.30;2.40;;;14.30;99.90;;;;;;5030031;28;20406;-72
2022/10/17 00:31:04;;;;;;;7.00;2.33;;;14.30;99.90;;;;;;5028657;28;20419;-73
2022/10/17 00:33:31;;;;;;;5.00;2.10;;;14.30;99.90;;;;;;5029321;28;20406;-73
2022/10/17 00:36:13;;;;;;;6.47;2.50;;;14.30;99.90;;;;;;5027970;28;20496;-73
2022/10/17 00:38:40;;;;;;;10.63;3.10;;;14.30;99.90;;;;;;5009375;28;20410;-73
2022/10/17 00:41:06;;;;;;;7.03;2.90;;;14.20;99.90;;;;;;5028742;28;20434;-74
2022/10/17 00:43:52;;;;;;;5.85;2.65;;;14.10;99.90;;;;;;5029125;28;20426;-72
2022/10/17 00:46:18;;;;;;;4.75;2.83;;;14.10;99.90;;;;;;5028126;28;20970;-73
2022/10/17 00:48:45;;;;;;;3.13;2.80;;;14.20;99.90;;;;;;5028509;28;20490;-72
2022/10/17 00:51:11;;;;;;;4.73;2.60;;;14.20;99.90;;;;;;5027756;28;20495;-73
2022/10/17 00:53:39;;;;;;;6.40;2.85;;;14.20;99.90;;;;;;5028876;28;20428;-73
2022/10/17 00:56:05;;;;;;;3.20;2.40;;;14.20;99.90;;;;;;5029899;28;20471;-73
2022/10/17 00:58:30;;;;;;;5.57;2.40;;;14.20;99.90;;;;;;5028162;28;20406;-74
2022/10/17 01:00:56;;;;;;;5.20;2.50;;;14.10;99.90;;;;;;5028565;28;21000;-73
2022/10/17 01:03:22;;;;;;;6.23;2.90;;;14.10;99.90;;;;;;5028190;28;20493;-73
2022/10/17 01:05:47;;;;;;;4.20;2.50;;;14.10;99.90;;;;;;5028917;28;20411;-73
2022/10/17 01:08:13;;;;;;;3.00;2.20;;;14.10;99.90;;;;;;5029315;28;20409;-73
2022/10/17 01:11:00;;;;;;;6.57;2.60;;;14.10;99.90;;;;;;5028059;28;20415;-73
2022/10/17 01:13:41;;;;;;;8.00;3.10;;;14.10;99.90;;;;;;5028165;28;20422;-73
2022/10/17 01:16:35;;;;;;;5.90;2.70;;;14.10;99.90;;;;;;5028603;28;20844;-72
2022/10/17 01:19:10;;;;;;;5.65;2.60;;;14.10;99.90;;;;;;5020029;28;20411;-73
2022/10/17 01:22:00;;;;;;;4.43;2.60;;;14.10;99.90;;;;;;5027222;28;20405;-73
2022/10/17 01:24:48;;;;;;;3.90;2.95;;;14.10;99.90;;;;;;5027137;28;20409;-73
2022/10/17 01:27:42;;;;;;;5.80;2.50;;;14.20;99.90;;;;;;5029015;28;20407;-74
2022/10/17 01:30:13;;;;;;;5.00;2.85;;;14.30;99.90;;;;;;5027535;28;20410;-73
2022/10/17 01:32:50;;;;;;;3.00;2.70;;;14.30;99.90;;;;;;5028410;28;20403;-73
2022/10/17 01:35:21;;;;;;;3.88;2.20;;;14.30;99.90;;;;;;5021696;28;20383;-73
2022/10/17 01:38:00;;;;;;;6.25;2.88;;;14.20;99.90;;;;;;5029653;28;20426;-73
2022/10/17 01:40:32;;;;;;;4.20;2.50;;;14.20;99.90;;;;;;5027994;28;20399;-74
2022/10/17 01:43:02;;;;;;;6.75;2.40;;;14.20;99.90;;;;;;5028140;28;20399;-73
2022/10/17 01:45:41;;;;;;;5.60;2.50;;;14.10;99.90;;;;;;5028261;28;20446;-73
2022/10/17 01:48:13;;;;;;;3.35;2.60;;;14.10;99.90;;;;;;5028841;28;20414;-74
2022/10/17 01:50:46;;;;;;;2.70;2.50;;;14.00;99.90;;;;;;5028028;28;20905;-73
2022/10/17 01:53:18;;;;;;;5.18;2.60;;;14.00;99.90;;;;;;5028081;28;21071;-73
2022/10/17 01:55:47;;;;;;;6.18;2.70;;;13.90;99.90;;;;;;5027403;28;20407;-74
2022/10/17 01:58:21;;;;;;;5.18;2.80;;;13.80;99.90;;;;;;5028947;28;20406;-74
2022/10/17 02:00:48;;;;;;;6.05;2.80;;;13.90;99.90;;;;;;5026479;28;20512;-74
2022/10/17 02:03:18;;;;;;;7.57;3.38;;;13.90;99.90;;;;;;5028247;28;20417;-72
2022/10/17 02:05:44;;;;;;;6.60;3.47;;;13.90;99.90;;;;;;5027104;28;20422;-72
2022/10/17 02:08:10;;;;;;;5.80;3.10;;;13.90;99.90;;;;;;5026390;28;20411;-72
2022/10/17 02:10:51;;;;;;;3.45;2.70;;;13.90;99.90;;;;;;5027529;28;20415;-72
2022/10/17 02:13:28;;;;;;;3.28;2.80;;;13.80;99.90;;;;;;5028460;28;20869;-72
2022/10/17 02:16:13;;;;;;;4.30;2.70;;;13.80;99.90;;;;;;5028433;28;20493;-72
2022/10/17 02:18:57;;;;;;;4.30;2.35;;;13.70;99.90;;;;;;5025213;28;20409;-72
2022/10/17 02:21:58;;;;;;;5.07;2.78;;;13.80;99.90;;;;;;5031925;28;20722;-72
2022/10/17 02:24:40;;;;;;;3.25;2.65;;;13.70;99.90;;;;;;5006960;28;20441;-72
2022/10/17 02:27:14;;;;;;;5.28;2.60;;;13.70;99.90;;;;;;5022353;28;20519;-72
2022/10/17 02:29:47;;;;;;;9.57;2.50;;;13.70;99.90;;;;;;5031407;28;20449;-72
2022/10/17 02:32:20;;;;;;;7.23;2.83;;;13.60;99.90;;;;;;5031841;28;21105;-72
2022/10/17 02:34:49;;;;;;;6.07;3.40;;;13.60;99.90;;;;;;5029852;28;20544;-73
2022/10/17 02:37:21;;;;;;;4.47;2.50;;;13.70;99.90;;;;;;5031720;28;20417;-72
2022/10/17 02:39:49;;;;;;;5.03;2.63;;;13.70;99.90;;;;;;5030694;28;20425;-72
2022/10/17 02:42:16;;;;;;;5.00;2.45;;;13.70;99.90;;;;;;5031947;28;20414;-72
2022/10/17 02:44:43;;;;;;;4.28;2.50;;;13.70;99.90;;;;;;5030467;28;21043;-72
2022/10/17 02:47:33;;;;;;;6.40;2.60;;;13.60;99.90;;;;;;5030960;28;20407;-71
2022/10/17 02:49:59;;;;;;;4.05;2.22;;;13.60;99.90;;;;;;5031808;28;20415;-71
2022/10/17 02:52:41;;;;;;;3.92;2.92;;;13.60;99.90;;;;;;5031309;28;21658;-72
2022/10/17 02:55:17;;;;;;;4.18;3.00;;;13.60;99.90;;;;;;5029449;28;20541;-72
2022/10/17 02:58:06;;;;;;;5.00;2.60;;;13.60;99.90;;;;;;5031391;28;20403;-72
2022/10/17 03:00:32;;;;;;;3.13;2.72;;;13.50;99.90;;;;;;5023097;28;20411;-72
2022/10/17 03:02:57;;;;;;;4.10;2.50;;;13.60;99.90;;;;;;5026117;28;20435;-71
2022/10/17 03:05:25;;;;;;;5.83;3.00;;;13.60;99.90;;;;;;5030951;28;20897;-72
2022/10/17 03:07:52;;;;;;;4.57;2.80;;;13.60;99.90;;;;;;5026710;28;20485;-73
2022/10/17 03:10:19;;;;;;;4.25;2.40;;;13.50;99.90;;;;;;5032098;28;20411;-73
2022/10/17 03:12:44;;;;;;;3.60;2.70;;;13.60;99.90;;;;;;5030761;28;20407;-73
2022/10/17 03:15:10;;;;;;;7.60;2.60;;;13.60;99.90;;;;;;5031225;28;20765;-72
2022/10/17 03:17:37;;;;;;;4.78;2.47;;;13.60;99.90;;;;;;5029713;28;20617;-73
2022/10/17 03:20:05;;;;;;;4.07;2.55;;;13.60;99.90;;;;;;5030627;28;20485;-72
2022/10/17 03:22:31;;;;;;;4.47;2.80;;;13.70;99.90;;;;;;5023216;28;20447;-74
2022/10/17 03:24:56;;;;;;;4.65;2.80;;;13.70;99.90;;;;;;5030797;28;20496;-72
2022/10/17 03:27:22;;;;;;;3.60;2.23;;;13.70;99.90;;;;;;5024650;28;20906;-72
2022/10/17 03:29:47;;;;;;;6.20;2.47;;;13.60;99.90;;;;;;5029760;28;20955;-72
2022/10/17 03:32:13;;;;;;;4.60;2.42;;;13.60;99.90;;;;;;5030586;28;20407;-73
2022/10/17 03:34:38;;;;;;;4.20;2.60;;;13.60;99.90;;;;;;5028724;28;20405;-72
2022/10/17 03:37:04;;;;;;;2.70;2.17;;;13.60;99.90;;;;;;5029828;28;20982;-73
2022/10/17 03:39:29;;;;;;;4.32;2.45;;;13.60;99.90;;;;;;5029896;28;20431;-72
2022/10/17 03:41:55;;;;;;;5.75;3.15;;;13.50;99.90;;;;;;5031252;28;20489;-73
2022/10/17 03:44:20;;;;;;;4.30;2.72;;;13.60;99.90;;;;;;5030420;28;20480;-72
2022/10/17 03:46:46;;;;;;;3.77;2.60;;;13.70;99.90;;;;;;5031164;28;20437;-72
2022/10/17 03:49:12;;;;;;;5.80;2.83;;;13.60;99.90;;;;;;5028703;28;20419;-73
2022/10/17 03:51:37;;;;;;;2.83;2.35;;;13.60;99.90;;;;;;5030653;28;20403;-73
2022/10/17 03:54:03;;;;;;;3.93;2.40;;;13.60;99.90;;;;;;5029016;28;20916;-72
2022/10/17 03:56:29;;;;;;;4.80;2.60;;;13.60;99.90;;;;;;5030351;28;20402;-72
2022/10/17 03:58:55;;;;;;;3.77;2.40;;;13.50;99.90;;;;;;5029748;28;20403;-73
2022/10/17 04:01:21;;;;;;;5.10;2.92;;;13.60;99.90;;;;;;5029533;28;20917;-72
2022/10/17 04:03:51;;;;;;;3.22;2.65;;;13.60;99.90;;;;;;5029529;28;20406;-73
2022/10/17 04:06:18;;;;;;;4.60;2.60;;;13.50;99.90;;;;;;5029668;28;20395;-73
2022/10/17 04:08:43;;;;;;;3.35;2.75;;;13.40;99.90;;;;;;5030199;28;20573;-73
2022/10/17 04:11:13;;;;;;;3.75;2.60;;;13.40;99.90;;;;;;5030168;28;20399;-73
2022/10/17 04:13:39;;;;;;;4.32;2.65;;;13.30;99.90;;;;;;5025074;28;20414;-73
2022/10/17 04:16:07;;;;;;;3.57;2.90;;;13.30;99.90;;;;;;5026917;28;20399;-73
2022/10/17 04:18:32;;;;;;;3.40;2.50;;;13.30;99.90;;;;;;5037473;28;20406;-73
2022/10/17 04:21:01;;;;;;;3.10;2.80;;;13.30;99.90;;;;;;5034048;28;20409;-73
2022/10/17 04:23:27;;;;;;;5.80;2.67;;;13.40;99.90;;;;;;5026064;28;20406;-73
2022/10/17 04:25:57;;;;;;;4.75;2.50;;;13.30;99.90;;;;;;5019838;28;20415;-74
2022/10/17 04:28:24;;;;;;;2.60;2.40;;;13.30;99.90;;;;;;5034256;28;20777;-73
2022/10/17 04:30:57;;;;;;;5.90;2.85;;;13.20;99.90;;;;;;5018021;28;20533;-74
2022/10/17 04:33:23;;;;;;;4.40;2.57;;;13.20;99.90;;;;;;5040324;28;20811;-73
2022/10/17 04:36:03;;;;;;;3.43;2.20;;;13.30;99.90;;;;;;5028859;28;20407;-74
2022/10/17 04:38:29;;;;;;;5.78;2.58;;;13.30;99.90;;;;;;5028060;28;20412;-73
2022/10/17 04:41:03;;;;;;;5.78;2.42;;;13.30;99.90;;;;;;5001680;28;20407;-73
2022/10/17 04:43:34;;;;;;;5.43;2.77;;;13.30;99.90;;;;;;5026446;28;20455;-73
2022/10/17 04:46:02;;;;;;;3.05;2.60;;;13.30;99.90;;;;;;5012037;28;20410;-73
2022/10/17 04:48:29;;;;;;;3.67;2.53;;;13.30;99.90;;;;;;5044690;28;20409;-73
2022/10/17 04:51:04;;;;;;;5.40;3.00;;;13.30;99.90;;;;;;5012070;28;21058;-72
2022/10/17 04:53:35;;;;;;;3.65;2.70;;;13.40;99.90;;;;;;5025837;28;20492;-73
2022/10/17 04:56:06;;;;;;;6.10;3.10;;;13.30;99.90;;;;;;5032962;28;20484;-73
2022/10/17 04:58:31;;;;;;;3.20;2.90;;;13.30;99.90;;;;;;5026083;28;20476;-73
2022/10/17 05:00:57;;;;;;;6.57;3.30;;;13.20;99.90;;;;;;5026732;28;20407;-74
2022/10/17 05:03:22;;;;;;;8.30;4.10;;;13.20;99.90;;;;;;5036377;28;20778;-73
2022/10/17 05:05:48;;;;;;;6.13;3.40;;;13.20;99.90;;;;;;5023857;28;20408;-73
2022/10/17 05:08:14;;;;;;;7.00;3.03;;;13.20;99.90;;;;;;5028382;28;20438;-73
2022/10/17 05:10:42;;;;;;;7.72;3.35;;;13.20;99.90;;;;;;5028355;28;20412;-72
2022/10/17 05:13:08;;;;;;;5.18;3.50;;;13.10;99.90;;;;;;5011014;28;20395;-72
2022/10/17 05:15:34;;;;;;;6.80;3.60;;;13.20;99.90;;;;;;5028102;28;20833;-72
2022/10/17 05:18:00;;;;;;;6.85;3.20;;;13.20;99.90;;;;;;5010885;28;20502;-73
2022/10/17 05:20:26;;;;;;;4.70;2.83;;;13.20;99.90;;;;;;5027114;28;20517;-72
2022/10/17 05:22:52;;;;;;;4.18;2.80;;;13.30;99.90;;;;;;5030112;28;20413;-72
2022/10/17 05:25:18;;;;;;;3.97;2.92;;;13.20;99.90;;;;;;5027047;28;20398;-73
2022/10/17 05:27:43;;;;;;;3.83;3.15;;;13.10;99.90;;;;;;5029567;28;20411;-72
2022/10/17 05:30:10;;;;;;;4.40;2.80;;;13.10;99.90;;;;;;5026197;28;20406;-72
2022/10/17 05:32:35;;;;;;;6.38;3.28;;;13.10;99.90;;;;;;5032370;28;20403;-74
2022/10/17 05:35:03;;;;;;;4.17;2.90;;;13.10;99.90;;;;;;5025741;28;20483;-72
2022/10/17 05:37:29;;;;;;;5.55;3.10;;;13.10;99.90;;;;;;5028654;28;20418;-73
2022/10/17 05:39:55;;;;;;;4.80;2.95;;;13.20;99.90;;;;;;5010230;28;20457;-72
2022/10/17 05:42:21;;;;;;;7.10;2.83;;;13.30;99.90;;;;;;5026703;28;20407;-73
2022/10/17 05:44:46;;;;;;;3.93;2.60;;;13.20;99.90;;;;;;5028048;28;20386;-72
2022/10/17 05:47:12;;;;;;;5.20;3.20;;;13.10;99.90;;;;;;5011164;28;20441;-73
2022/10/17 05:49:37;;;;;;;5.32;3.80;;;13.10;99.90;;;;;;5028754;28;20486;-73
2022/10/17 05:52:03;;;;;;;3.53;3.07;;;13.20;99.90;;;;;;5033976;28;20399;-73
2022/10/17 05:54:29;;;;;;;4.70;2.90;;;13.10;99.90;;;;;;5033730;28;20383;-73
2022/10/17 05:56:55;;;;;;;3.20;2.90;;;13.10;99.90;;;;;;5034096;28;20383;-73
2022/10/17 05:59:23;;;;;;;4.93;2.63;;;13.20;99.90;;;;;;5033911;28;20383;-73
2022/10/17 06:01:48;;;;;;;5.95;3.15;;;13.20;99.90;;;;;;5033764;28;20390;-73
2022/10/17 06:04:14;;;;;;;6.30;2.83;;;13.10;99.90;;;;;;5033392;28;20908;-73
2022/10/17 06:06:39;;;;;;;5.03;2.77;;;13.10;99.90;;;;;;5034007;28;20792;-73
2022/10/17 06:09:06;;;;;;;3.30;2.70;;;13.10;99.90;;;;;;5033874;28;20387;-73
2022/10/17 06:11:32;;;;;;;3.70;2.72;;;13.20;99.90;;;;;;5034156;28;20381;-73
2022/10/17 06:13:58;;;;;;;5.38;2.80;;;13.20;99.90;;;;;;5033200;28;20470;-73
2022/10/17 06:16:23;;;;;;;7.15;2.95;;;13.10;99.90;;;;;;5015956;28;20402;-73
2022/10/17 06:18:49;;;;;;;5.40;2.90;;;13.20;99.90;;;;;;5033455;28;20426;-73
2022/10/17 06:21:19;;;;;;;6.80;2.53;;;13.20;99.90;;;;;;5031156;28;20427;-73
2022/10/17 06:23:45;;;;;;;4.30;3.00;;;13.20;99.90;;;;;;5031152;28;20954;-73
2022/10/17 06:26:11;;;;;;;3.30;2.60;;;13.20;99.90;;;;;;5033465;28;20387;-73
2022/10/17 06:28:36;;;;;;;7.32;3.10;;;13.20;99.90;;;;;;5033406;28;20387;-73
2022/10/17 06:31:10;;;;;;;5.97;2.80;;;13.30;99.90;;;;;;5033295;28;20398;-73
2022/10/17 06:33:36;;;;;;;3.42;3.05;;;13.30;99.90;;;;;;5015346;28;20440;-73
2022/10/17 06:36:03;;;;;;;4.07;2.90;;;13.40;99.90;;;;;;5032878;28;20427;-73
2022/10/17 06:38:29;;;;;;;4.20;2.55;;;13.40;99.90;;;;;;5033221;28;20405;-73
2022/10/17 06:41:07;;;;;;;5.10;3.20;;;13.30;99.90;;;;;;5033254;28;20489;-73
2022/10/17 06:43:34;;;;;;;6.72;2.80;;;13.40;99.90;;;;;;5032825;28;20900;-73
2022/10/17 06:46:00;;;;;;;3.20;2.90;;;13.50;99.90;;;;;;5033060;28;20448;-73
2022/10/17 06:48:25;;;;;;;4.80;3.20;;;13.60;99.90;;;;;;5033190;28;20884;-73
2022/10/17 06:50:50;;;;;;;5.60;2.97;;;13.60;99.90;;;;;;5032907;28;20419;-73
2022/10/17 06:53:16;;;;;;;3.53;2.80;;;13.70;99.90;;;;;;5032761;28;20398;-74
2022/10/17 06:55:42;;;;;;;3.30;2.73;;;13.70;99.90;;;;;;5032855;28;20391;-73
2022/10/17 06:58:07;;;;;;;3.80;2.90;;;13.70;99.90;;;;;;5032802;28;20415;-74
2022/10/17 07:00:33;;;;;;;3.58;2.70;;;13.70;99.90;;;;;;5031174;28;20813;-74
2022/10/17 07:02:58;;;;;;;5.27;3.50;;;13.80;99.90;;;;;;5028775;28;20951;-73
2022/10/17 07:05:24;;;;;;;3.90;2.90;;;13.90;99.90;;;;;;5030570;28;20962;-74
2022/10/17 07:07:49;;;;;;;4.47;2.67;;;14.00;99.90;;;;;;5031770;28;20974;-73
2022/10/17 07:10:16;;;;;;;3.40;3.00;;;14.00;99.90;;;;;;5027772;28;20435;-75
2022/10/17 07:12:43;;;;;;;3.30;2.80;;;14.10;99.90;;;;;;5030522;28;20829;-74
2022/10/17 07:15:09;;;;;;;4.63;2.43;;;14.10;99.90;;;;;;5029103;28;20390;-74
2022/10/17 07:17:34;;;;;;;3.60;2.50;;;14.20;99.90;;;;;;5032181;28;20441;-74
2022/10/17 07:20:00;;;;;;;4.80;2.60;;;14.40;99.90;;;;;;5031381;28;20409;-74
2022/10/17 07:22:26;;;;;;;5.95;2.30;;;14.40;99.90;;;;;;5032343;28;20745;-74
2022/10/17 07:24:51;;;;;;;6.83;3.00;;;14.40;99.90;;;;;;5030046;28;20426;-74
2022/10/17 07:27:17;;;;;;;5.77;2.90;;;14.30;99.90;;;;;;5032037;28;20394;-74
2022/10/17 07:29:42;;;;;;;4.00;2.40;;;14.40;99.90;;;;;;5031269;28;20407;-72
2022/10/17 07:32:08;;;;;;;4.90;2.70;;;14.60;99.90;;;;;;5029067;28;20406;-72
2022/10/17 07:34:35;;;;;;;2.63;2.33;;;14.60;99.90;;;;;;5028760;28;20411;-71
2022/10/17 07:37:01;;;;;;;4.00;2.60;;;14.80;99.90;;;;;;5027522;28;20395;-74
2022/10/17 07:39:26;;;;;;;3.70;2.20;;;14.80;99.90;;;;;;5027992;28;20402;-74
2022/10/17 07:41:52;;;;;;;3.33;2.30;;;14.90;99.90;;;;;;5028726;28;20751;-74
2022/10/17 07:44:17;;;;;;;4.82;2.40;;;15.00;99.90;;;;;;5030488;28;20407;-74
2022/10/17 07:46:43;;;;;;;3.30;2.58;;;15.20;99.90;;;;;;5029108;28;20482;-74
2022/10/17 07:49:08;;;;;;;2.60;2.40;;;15.40;99.90;;;;;;5031744;28;20778;-74
2022/10/17 07:51:34;;;;;;;2.50;2.30;;;15.60;99.90;;;;;;5029162;28;20409;-74
2022/10/17 07:53:59;;;;;;;4.60;2.78;;;15.70;99.90;;;;;;5028997;28;20758;-74
2022/10/17 07:56:25;;;;;;;4.53;2.17;;;15.80;99.90;;;;;;5028633;28;20929;-74
2022/10/17 07:58:51;;;;;;;5.30;2.20;;;15.90;99.90;;;;;;5009452;28;20944;-74
2022/10/17 08:01:18;;;;;;;3.53;2.25;;;16.00;99.90;;;;;;5031029;28;20403;-74
2022/10/17 08:03:44;;;;;;;2.70;2.40;;;16.00;99.90;;;;;;5009161;28;20408;-74
2022/10/17 08:06:11;;;;;;;4.50;2.78;;;16.10;99.90;;;;;;5019857;28;20391;-74
2022/10/17 08:08:36;;;;;;;3.60;2.60;;;16.20;99.90;;;;;;5012667;28;20777;-74
2022/10/17 08:11:08;;;;;;;3.22;2.30;;;16.30;99.90;;;;;;5031241;28;20407;-74
2022/10/17 08:13:34;;;;;;;5.35;2.60;;;16.40;99.90;;;;;;5039266;28;20399;-74
2022/10/17 08:16:02;;;;;;;4.60;2.22;;;16.50;99.90;;;;;;5033253;28;20403;-74
2022/10/17 08:18:27;;;;;;;3.10;2.20;;;16.50;99.90;;;;;;5034877;28;20402;-74
2022/10/17 08:20:53;;;;;;;4.00;2.10;;;16.50;99.90;;;;;;5007589;28;20411;-74
2022/10/17 08:23:19;;;;;;;2.80;2.30;;;16.50;99.90;;;;;;5011181;28;20407;-74
2022/10/17 08:25:44;;;;;;;3.17;2.40;;;16.60;99.90;;;;;;5029109;28;20434;-74
2022/10/17 08:28:10;;;;;;;3.20;2.10;;;16.80;99.90;;;;;;5031104;28;20874;-74
2022/10/17 08:30:35;;;;;;;3.10;2.30;;;16.90;99.90;;;;;;5008685;28;20411;-74
2022/10/17 08:33:01;;;;;;;3.10;2.60;;;17.20;99.90;;;;;;5030694;28;20383;-74
2022/10/17 08:35:27;;;;;;;4.85;2.20;;;17.30;99.90;;;;;;5030816;28;20467;-74
2022/10/17 08:37:52;;;;;;;3.93;2.10;;;17.50;99.90;;;;;;5011294;28;20804;-74
2022/10/17 08:40:26;;;;;;;4.20;2.10;;;17.60;99.90;;;;;;5029579;28;20482;-74
2022/10/17 08:43:06;;;;;;;3.10;1.80;;;17.70;99.90;;;;;;5012092;28;20473;-74
2022/10/17 08:45:40;;;;;;;2.80;2.40;;;17.80;99.90;;;;;;5030529;28;20401;-74
2022/10/17 08:48:12;;;;;;;3.88;2.33;;;17.90;99.90;;;;;;5030864;28;20379;-74
2022/10/17 08:50:50;;;;;;;3.00;2.00;;;18.00;99.90;;;;;;5030841;28;20411;-74
2022/10/17 08:53:30;;;;;;;2.50;2.10;;;18.00;99.90;;;;;;5012721;28;20383;-74
2022/10/17 08:55:59;;;;;;;4.10;2.03;;;18.10;99.90;;;;;;5025861;28;20770;-74
2022/10/17 08:58:31;;;;;;;2.08;1.70;;;18.10;99.90;;;;;;5030605;28;20686;-74
2022/10/17 09:01:31;;;;;;;3.97;2.10;;;18.30;99.90;;;;;;5030124;28;20473;-73
2022/10/17 09:04:08;;;;;;;5.30;2.40;;;18.30;99.90;;;;;;5010333;28;20399;-74
2022/10/17 09:06:38;;;;;;;3.30;2.30;;;18.40;99.90;;;;;;5031601;28;20416;-74
2022/10/17 09:09:21;;;;;;;2.40;2.20;;;18.40;99.90;;;;;;5030469;28;20405;-74
2022/10/17 09:11:59;;;;;;;4.18;2.63;;;18.40;99.90;;;;;;5042872;28;20400;-74
2022/10/17 09:14:54;;;;;;;3.10;1.85;;;18.50;99.90;;;;;;5037015;28;20691;-74
2022/10/17 09:17:28;;;;;;;4.90;2.40;;;18.60;99.90;;;;;;5026886;28;20399;-74
2022/10/17 09:20:11;;;;;;;2.60;1.70;;;18.60;99.90;;;;;;5017047;28;20399;-73
2022/10/17 09:22:52;;;;;;;2.60;2.20;;;18.80;99.90;;;;;;5007590;28;20468;-73
2022/10/17 09:25:19;;;;;;;2.92;2.40;;;18.90;99.90;;;;;;5028495;28;20441;-73
2022/10/17 09:27:53;;;;;;;3.97;2.20;;;19.00;99.90;;;;;;5029854;28;20391;-73
2022/10/17 09:30:33;;;;;;;3.97;2.22;;;19.20;99.90;;;;;;5012014;28;20824;-74
2022/10/17 09:33:00;;;;;;;2.97;2.17;;;19.30;99.90;;;;;;5029079;28;20761;-73
2022/10/17 09:35:27;;;;;;;2.80;1.90;;;19.40;99.90;;;;;;5029942;28;20415;-73
2022/10/17 09:37:53;;;;;;;3.45;2.13;;;19.60;99.90;;;;;;5029654;28;21199;-73
2022/10/17 09:40:30;;;;;;;4.20;2.20;;;19.90;99.90;;;;;;5029853;28;20425;-73
2022/10/17 09:42:57;;;;;;;3.47;2.40;;;20.00;99.90;;;;;;5029750;28;20391;-73
2022/10/17 09:45:25;;;;;;;4.22;2.80;;;20.20;99.90;;;;;;5029664;28;20387;-73
2022/10/17 09:48:22;;;;;;;3.90;2.50;;;20.40;99.90;;;;;;5029804;28;20418;-73
2022/10/17 09:50:48;;;;;;;7.03;2.85;;;20.50;99.90;;;;;;5012943;28;20425;-73
2022/10/17 09:53:28;;;;;;;3.20;2.90;;;20.50;99.90;;;;;;5029362;28;20391;-73
2022/10/17 09:55:57;;;;;;;4.90;3.53;;;20.60;99.90;;;;;;5029822;28;20387;-73
2022/10/17 09:58:23;;;;;;;6.68;3.10;;;20.60;99.90;;;;;;5029657;28;20398;-72
2022/10/17 10:00:48;;;;;;;3.30;2.80;;;20.80;99.90;;;;;;5011804;28;20426;-73
2022/10/17 10:03:26;;;;;;;3.75;2.42;;;20.80;99.90;;;;;;5029358;28;20433;-73
2022/10/17 10:06:03;;;;;;;3.90;2.97;;;21.10;99.90;;;;;;5011471;28;20487;-73
2022/10/17 10:08:34;;;;;;;4.50;3.25;;;21.10;99.90;;;;;;5029784;28;20383;-72
2022/10/17 10:11:04;;;;;;;4.05;3.20;;;21.00;99.90;;;;;;5029818;28;20786;-73
2022/10/17 10:13:31;;;;;;;7.60;3.58;;;20.90;99.90;;;;;;5029112;28;20433;-73
2022/10/17 10:16:20;;;;;;;5.47;3.17;;;20.90;99.90;;;;;;5029731;28;20983;-73
2022/10/17 10:18:47;;;;;;;5.22;2.88;;;21.00;99.90;;;;;;5029711;28;20386;-73
2022/10/17 10:21:15;;;;;;;5.53;2.50;;;21.10;99.90;;;;;;5027851;28;20423;-73
2022/10/17 10:23:43;;;;;;;3.80;2.60;;;21.20;99.90;;;;;;5029028;28;20387;-73
2022/10/17 10:26:22;;;;;;;3.13;2.83;;;21.30;99.90;;;;;;5028980;28;20453;-73
2022/10/17 10:28:54;;;;;;;3.53;2.30;;;21.40;99.90;;;;;;5029354;28;20474;-73
2022/10/17 10:31:27;;;;;;;4.90;2.40;;;21.50;99.90;;;;;;5029459;28;20399;-74
2022/10/17 10:33:52;;;;;;;2.88;2.20;;;21.60;99.90;;;;;;5029145;28;20434;-73
2022/10/17 10:36:21;;;;;;;3.28;2.38;;;21.80;99.90;;;;;;5025404;28;20399;-74
2022/10/17 10:38:53;;;;;;;4.68;2.85;;;22.00;99.90;;;;;;5027442;28;20421;-74
2022/10/17 10:41:20;;;;;;;5.18;2.20;;;22.00;99.90;;;;;;5032063;28;20918;-74
2022/10/17 10:43:50;;;;;;;3.65;2.30;;;22.10;99.90;;;;;;5032448;28;20430;-73
2022/10/17 10:46:34;;;;;;;5.85;2.50;;;22.30;99.90;;;;;;5031575;28;20462;-73
2022/10/17 10:49:00;;;;;;;2.97;2.50;;;22.30;99.90;;;;;;5032156;28;20445;-73
2022/10/17 10:51:31;;;;;;;3.58;2.40;;;22.50;99.90;;;;;;5031078;28;20417;-73
2022/10/17 10:54:22;;;;;;;2.30;2.10;;;22.50;99.90;;;;;;5032672;28;20813;-74
2022/10/17 10:56:53;;;;;;;4.65;2.42;;;22.90;99.90;;;;;;5032577;28;20466;-73
2022/10/17 10:59:41;;;;;;;3.80;2.38;;;23.10;99.90;;;;;;5015490;28;20797;-73
2022/10/17 11:02:32;;;;;;;2.40;2.20;;;23.60;99.40;;;;;;5033133;28;20394;-73
2022/10/17 11:05:11;;;;;;;2.50;2.00;;;24.40;99.50;;;;;;5032314;28;20914;-74
2022/10/17 11:07:45;;;;;;;2.63;1.90;;;24.80;95.20;;;;;;5032489;28;20461;-75
2022/10/17 11:10:32;;;;;;;3.50;2.25;;;25.50;93.90;;;;;;5032431;28;20403;-74
2022/10/17 11:13:10;;;;;;;3.05;2.15;;;25.80;89.10;;;;;;5014482;28;20395;-74
2022/10/17 11:15:52;;;;;;;3.60;1.80;;;26.40;91.20;;;;;;5022063;28;20396;-75
2022/10/17 11:18:49;;;;;;;3.33;1.80;;;26.80;85.30;;;;;;5012400;28;20466;-75
2022/10/17 11:21:22;;;;;;;2.63;2.17;;;27.20;81.10;;;;;;5024055;28;20399;-74
2022/10/17 11:23:58;;;;;;;3.08;1.60;;;27.50;78.40;;;;;;5019112;28;20475;-73
2022/10/17 11:26:32;;;;;;;1.92;1.48;;;26.30;77.30;;;;;;5031846;28;20479;-73
2022/10/17 11:29:03;;;;;;;2.60;1.67;;;27.30;72.00;;;;;;5032172;28;20390;-74
2022/10/17 11:31:36;;;;;;;1.83;1.60;;;27.70;71.90;;;;;;5031909;28;20402;-74
2022/10/17 11:34:34;;;;;;;3.20;1.70;;;27.60;68.20;;;;;;5014102;28;20405;-73
2022/10/17 11:37:08;;;;;;;10.25;2.20;;;27.20;68.30;;;;;;5023589;28;20449;-74
2022/10/17 11:39:48;;;;;;;3.50;1.23;;;26.60;70.70;;;;;;5031730;28;20456;-74
2022/10/17 11:42:36;;;;;;;2.42;1.30;;;26.80;67.90;;;;;;5032188;28;20395;-74
2022/10/17 11:45:10;;;;;;;1.92;1.50;;;26.90;66.60;;;;;;5009969;28;20879;-74
2022/10/17 11:47:45;;;;;;;3.17;1.30;;;27.30;64.80;;;;;;5028757;28;20507;-74
2022/10/17 11:50:23;;;;;;;1.58;1.23;;;28.10;66.10;;;;;;5030898;28;20407;-73
2022/10/17 11:53:15;;;;;;;1.90;1.80;;;28.80;61.60;;;;;;5029948;28;20408;-74
2022/10/17 11:55:41;;;;;;;1.50;1.10;;;28.90;62.00;;;;;;5008076;28;20387;-74
2022/10/17 11:58:16;;;;;;;2.85;1.20;;;28.50;58.50;;;;;;5031674;28;20986;-74
2022/10/17 12:01:11;;;;;;;2.00;1.00;;;28.10;59.80;;;;;;5031940;28;20474;-74
2022/10/17 12:03:49;;;;;;;1.80;1.13;;;28.20;58.80;;;;;;5025517;28;20888;-74
2022/10/17 12:06:21;;;;;;;1.80;1.33;;;28.10;59.60;;;;;;5031247;28;20438;-74
2022/10/17 12:09:19;;;;;;;5.03;1.08;;;27.50;61.60;;;;;;5031733;28;20428;-74
2022/10/17 12:11:54;;;;;;;2.92;1.33;;;27.80;60.30;;;;;;5031609;28;20409;-74
2022/10/17 12:14:44;;;;;;;2.55;1.45;;;27.80;62.30;;;;;;5030097;28;20395;-73
2022/10/17 12:17:37;;;;;;;3.10;1.20;;;27.60;61.00;;;;;;5024898;28;20509;-74
2022/10/17 12:20:24;;;;;;;3.08;1.40;;;27.60;59.30;;;;;;5029061;28;20403;-73
2022/10/17 12:22:54;;;;;;;1.30;1.20;;;27.00;60.90;;;;;;5025663;28;20407;-74
2022/10/17 12:25:29;;;;;;;1.10;1.00;;;26.50;63.30;;;;;;5030060;28;20434;-73
2022/10/17 12:28:21;;;;;;;6.40;1.50;;;26.50;65.80;;;;;;5024758;28;20395;-74
2022/10/17 12:30:55;;;;;;;2.17;1.17;;;26.50;65.00;;;;;;5020545;28;20805;-73
2022/10/17 12:33:29;;;;;;;2.85;1.20;;;26.20;66.60;;;;;;5023015;28;20761;-72
2022/10/17 12:36:26;;;;;;;1.10;1.00;;;26.10;65.00;;;;;;5024432;28;20442;-73
2022/10/17 12:39:01;;;;;;;2.88;1.25;;;26.00;67.30;;;;;;5024511;28;20407;-74
2022/10/17 12:41:38;;;;;;;1.60;1.50;;;25.70;67.20;;;;;;5030546;28;20444;-73
2022/10/17 12:44:13;;;;;;;2.20;1.20;;;25.60;67.50;;;;;;5030654;28;20466;-74
2022/10/17 12:46:59;;;;;;;3.65;1.20;;;25.50;70.80;;;;;;5030704;28;20398;-72
2022/10/17 12:49:44;;;;;;;2.45;1.40;;;25.60;68.50;;;;;;5023662;28;20478;-73
2022/10/17 12:52:30;;;;;;;1.88;1.30;;;25.60;70.70;;;;;;5030432;28;20399;-73
2022/10/17 12:55:06;;;;;;;2.80;1.40;;;25.60;67.90;;;;;;5012963;28;20393;-72
2022/10/17 12:57:39;;;;;;;1.60;1.50;;;25.60;68.80;;;;;;5030710;28;20376;-73
2022/10/17 13:00:16;;;;;;;1.60;1.10;;;25.70;71.10;;;;;;5011675;28;20398;-73
2022/10/17 13:02:43;;;;;;;2.10;1.40;;;25.80;70.40;;;;;;5011790;28;20900;-73
2022/10/17 13:05:15;;;;;;;2.15;1.30;;;26.00;71.60;;;;;;5030210;28;20387;-73
2022/10/17 13:07:44;;;;;;;3.50;1.50;;;26.20;71.30;;;;;;5012750;28;20419;-73
2022/10/17 13:10:23;;;;;;;1.70;1.33;;;26.20;67.90;;;;;;5030531;28;20414;-72